Lady Of Lourdes — WDE5493 — position and weather

sailwx.info

Track history (hours):
 
Tides and Currents Weather Stations Pressure Air Temp Water Temp Dewpoint Dewpoint Depression Visibility Wind Speed Wind Dir Waves Ship Positions

Lady Of Lourdes

Owner: Marquette Transportation Company Gulf-Inland, LLC, Jefferson, LA. More information available from US FCC via Universal Licensing System and Coast Guard Vessel Documentation Center.

Last reported at 2018-Jan-19 14:57 UTC. Time now 2018-Jan-20 13:03 UTC.
Position N 29°58' W 093°51'.

Length 84 m; draft 3 m.

Type: . MMSI: 367367530.

Date/timePositionNaut miles runAvg speedWind from/ knotsBaromVisibWave heightAir tempDewpointWater temp
2018-Jan-19 14:57N 29°58' W 093°51'0 0.1
2018-Jan-19 14:02N 29°58' W 093°51'0 1.2
2018-Jan-19 13:56N 29°58' W 093°51'1 1.4
2018-Jan-19 13:28N 29°59' W 093°50'3 7.4
2018-Jan-19 13:00N 29°60' W 093°46'4 7.5
2018-Jan-19 12:30N 30°03' W 093°44'3 6.3
2018-Jan-19 12:00N 30°04' W 093°40'3 6.8
2018-Jan-19 11:30N 30°04' W 093°36'4 6.7
2018-Jan-19 10:55N 30°04' W 093°32'3 6.8
2018-Jan-19 10:30N 30°04' W 093°28'3 6.8
2018-Jan-19 10:01N 30°04' W 093°25'3 5.7
2018-Jan-19 09:30N 30°04' W 093°21'0 0.5
2018-Jan-19 09:01N 30°04' W 093°22'2 4.5
2018-Jan-19 08:30N 30°04' W 093°24'4 7.3
2018-Jan-19 08:00N 30°04' W 093°28'4 7.2
2018-Jan-19 07:28N 30°04' W 093°33'77 2.7
2018-Jan-18 03:23N 29°29' W 094°52'2 4.2
2018-Jan-18 02:53N 29°31' W 094°53'1 3.9
2018-Jan-18 02:30N 29°32' W 094°54'2 3.8
2018-Jan-18 02:00N 29°33' W 094°55'2 4.1
2018-Jan-18 01:30N 29°35' W 094°56'2 4.7
2018-Jan-18 00:59N 29°37' W 094°58'4 4.1
2018-Jan-17 23:59N 29°41' W 094°59'0 4.5
2018-Jan-17 23:57N 29°41' W 094°59'  
2018-Jan-10 12:25N 30°04' W 093°38'2 5.3
2018-Jan-10 11:57N 30°04' W 093°35'2 5.1
2018-Jan-10 11:30N 30°04' W 093°32'2 4.8
2018-Jan-10 11:00N 30°04' W 093°30'3 5.0
2018-Jan-10 10:30N 30°04' W 093°27'3 5.1
2018-Jan-10 10:00N 30°04' W 093°24'2 4.2
2018-Jan-10 09:30N 30°04' W 093°21'0 0.1
2018-Jan-10 09:00N 30°04' W 093°21'0 0.0
2018-Jan-10 08:30N 30°04' W 093°21'0 0.0
2018-Jan-10 08:00N 30°04' W 093°21'0 0.3
2018-Jan-10 07:30N 30°04' W 093°21'1 1.5
2018-Jan-10 07:00N 30°04' W 093°21'3 6.7
2018-Jan-10 06:30N 30°07' W 093°20'3 6.6
2018-Jan-10 06:00N 30°11' W 093°19'3 6.7
2018-Jan-10 05:30N 30°12' W 093°16'1 3.0
2018-Jan-10 05:00N 30°14' W 093°15'2 4.3
2018-Jan-10 04:30N 30°12' W 093°17'3 6.1
2018-Jan-10 04:00N 30°10' W 093°19'3 5.9
2018-Jan-10 03:30N 30°07' W 093°20'2 4.7
2018-Jan-10 03:00N 30°05' W 093°20'2 3.4
2018-Jan-10 02:30N 30°04' W 093°22'0 0.0
2018-Jan-10 02:00N 30°04' W 093°22'2 3.0
2018-Jan-10 01:30N 30°04' W 093°23'3 6.5
2018-Jan-10 01:00N 30°04' W 093°27'3 6.6
2018-Jan-10 00:30N 30°04' W 093°31'  
Track history (hours):
 
Tides and Currents Weather Stations Pressure Air Temp Water Temp Dewpoint Dewpoint Depression Visibility Wind Speed Wind Dir Waves Ship Positions

Lady Of Lourdes

Owner: Marquette Transportation Company Gulf-Inland, LLC, Jefferson, LA. More information available from US FCC via Universal Licensing System and Coast Guard Vessel Documentation Center.

Last reported at 2018-Jan-19 14:57 UTC. Time now 2018-Jan-20 13:03 UTC.
Position N 29°58' W 093°51'.

Length 84 m; draft 3 m.

Type: . MMSI: 367367530.

Date/timePositionNaut miles runAvg speedWind from/ knotsBaromVisibWave heightAir tempDewpointWater temp
2018-Jan-19 14:57N 29°58' W 093°51'0 0.1
2018-Jan-19 14:02N 29°58' W 093°51'0 1.2
2018-Jan-19 13:56N 29°58' W 093°51'1 1.4
2018-Jan-19 13:28N 29°59' W 093°50'3 7.4
2018-Jan-19 13:00N 29°60' W 093°46'4 7.5
2018-Jan-19 12:30N 30°03' W 093°44'3 6.3
2018-Jan-19 12:00N 30°04' W 093°40'3 6.8
2018-Jan-19 11:30N 30°04' W 093°36'4 6.7
2018-Jan-19 10:55N 30°04' W 093°32'3 6.8
2018-Jan-19 10:30N 30°04' W 093°28'3 6.8
2018-Jan-19 10:01N 30°04' W 093°25'3 5.7
2018-Jan-19 09:30N 30°04' W 093°21'0 0.5
2018-Jan-19 09:01N 30°04' W 093°22'2 4.5
2018-Jan-19 08:30N 30°04' W 093°24'4 7.3
2018-Jan-19 08:00N 30°04' W 093°28'4 7.2
2018-Jan-19 07:28N 30°04' W 093°33'77 2.7
2018-Jan-18 03:23N 29°29' W 094°52'2 4.2
2018-Jan-18 02:53N 29°31' W 094°53'1 3.9
2018-Jan-18 02:30N 29°32' W 094°54'2 3.8
2018-Jan-18 02:00N 29°33' W 094°55'2 4.1
2018-Jan-18 01:30N 29°35' W 094°56'2 4.7
2018-Jan-18 00:59N 29°37' W 094°58'4 4.1
2018-Jan-17 23:59N 29°41' W 094°59'0 4.5
2018-Jan-17 23:57N 29°41' W 094°59'  
2018-Jan-10 12:25N 30°04' W 093°38'2 5.3
2018-Jan-10 11:57N 30°04' W 093°35'2 5.1
2018-Jan-10 11:30N 30°04' W 093°32'2 4.8
2018-Jan-10 11:00N 30°04' W 093°30'3 5.0
2018-Jan-10 10:30N 30°04' W 093°27'3 5.1
2018-Jan-10 10:00N 30°04' W 093°24'2 4.2
2018-Jan-10 09:30N 30°04' W 093°21'0 0.1
2018-Jan-10 09:00N 30°04' W 093°21'0 0.0
2018-Jan-10 08:30N 30°04' W 093°21'0 0.0
2018-Jan-10 08:00N 30°04' W 093°21'0 0.3
2018-Jan-10 07:30N 30°04' W 093°21'1 1.5
2018-Jan-10 07:00N 30°04' W 093°21'3 6.7
2018-Jan-10 06:30N 30°07' W 093°20'3 6.6
2018-Jan-10 06:00N 30°11' W 093°19'3 6.7
2018-Jan-10 05:30N 30°12' W 093°16'1 3.0
2018-Jan-10 05:00N 30°14' W 093°15'2 4.3
2018-Jan-10 04:30N 30°12' W 093°17'3 6.1
2018-Jan-10 04:00N 30°10' W 093°19'3 5.9
2018-Jan-10 03:30N 30°07' W 093°20'2 4.7
2018-Jan-10 03:00N 30°05' W 093°20'2 3.4
2018-Jan-10 02:30N 30°04' W 093°22'0 0.0
2018-Jan-10 02:00N 30°04' W 093°22'2 3.0
2018-Jan-10 01:30N 30°04' W 093°23'3 6.5
2018-Jan-10 01:00N 30°04' W 093°27'3 6.6
2018-Jan-10 00:30N 30°04' W 093°31'  

Dump ship's entire track history